createdAt,value
2022-07-28T00:02:24.027Z,95907.38
2022-07-28T00:04:50.671Z,95901.16
2022-07-28T00:07:18.270Z,95913.44
2022-07-28T00:09:48.786Z,95907.53
2022-07-28T00:12:15.575Z,95906.94
2022-07-28T00:14:42.161Z,95905.59
2022-07-28T00:17:09.250Z,95913.53
2022-07-28T00:19:36.134Z,95906.38
2022-07-28T00:22:03.508Z,95906.66
2022-07-28T00:24:30.449Z,95907.00
2022-07-28T00:26:57.328Z,95907.34
2022-07-28T00:29:24.121Z,95908.91
2022-07-28T00:31:52.349Z,95902.59
2022-07-28T00:34:19.471Z,95908.38
2022-07-28T00:36:53.113Z,95910.75
2022-07-28T00:39:20.941Z,95909.50
2022-07-28T00:41:49.742Z,95904.03
2022-07-28T00:44:17.022Z,95901.56
2022-07-28T00:46:45.688Z,95902.50
2022-07-28T00:49:14.773Z,95896.19
2022-07-28T00:51:42.139Z,95900.53
2022-07-28T00:54:11.439Z,95901.44
2022-07-28T00:56:38.670Z,95899.81
2022-07-28T00:59:05.598Z,95897.84
2022-07-28T01:01:32.230Z,95903.53
2022-07-28T01:03:59.469Z,95899.06
2022-07-28T01:06:26.316Z,95901.59
2022-07-28T01:08:52.945Z,95900.31
2022-07-28T01:11:19.572Z,95902.22
2022-07-28T01:13:46.763Z,95892.41
2022-07-28T01:16:13.356Z,95899.59
2022-07-28T01:18:40.994Z,95896.63
2022-07-28T01:21:08.453Z,95890.38
2022-07-28T01:23:35.022Z,95895.56
2022-07-28T01:26:02.834Z,95890.88
2022-07-28T01:28:29.344Z,95895.22
2022-07-28T01:30:56.325Z,95891.84
2022-07-28T01:33:23.402Z,95896.50
2022-07-28T01:35:53.209Z,95884.44
2022-07-28T01:38:20.639Z,95887.81
2022-07-28T01:40:48.569Z,95892.31
2022-07-28T01:43:18.563Z,95889.00
2022-07-28T01:45:45.468Z,95895.69
2022-07-28T01:48:12.901Z,95897.06
2022-07-28T01:50:39.759Z,95896.09
2022-07-28T01:53:06.274Z,95893.53
2022-07-28T01:55:33.081Z,95886.69
2022-07-28T01:57:59.897Z,95887.50
2022-07-28T02:00:27.791Z,95880.66
2022-07-28T02:02:54.774Z,95892.00
2022-07-28T02:05:21.975Z,95886.91
2022-07-28T02:07:49.257Z,95884.22
2022-07-28T02:10:15.898Z,95882.41
2022-07-28T02:12:42.691Z,95885.25
2022-07-28T02:15:09.734Z,95883.09
2022-07-28T02:17:38.821Z,95880.00
2022-07-28T02:20:05.904Z,95882.16
2022-07-28T02:22:32.515Z,95881.78
2022-07-28T02:24:59.358Z,95879.25
2022-07-28T02:27:26.436Z,95880.50
2022-07-28T02:29:54.713Z,95879.78
2022-07-28T02:32:27.852Z,95875.31
2022-07-28T02:34:55.063Z,95872.44
2022-07-28T02:37:22.826Z,95874.50
2022-07-28T02:40:00.380Z,95878.94
2022-07-28T02:42:27.307Z,95876.78
2022-07-28T02:44:54.361Z,95870.97
2022-07-28T02:47:21.714Z,95870.03
2022-07-28T02:49:48.243Z,95874.59
2022-07-28T02:52:15.655Z,95875.53
2022-07-28T02:54:42.648Z,95878.94
2022-07-28T02:57:10.043Z,95878.22
2022-07-28T02:59:36.668Z,95881.06
2022-07-28T03:02:03.433Z,95880.94
2022-07-28T03:04:29.922Z,95897.94
2022-07-28T03:07:01.553Z,95890.56
2022-07-28T03:09:28.167Z,95895.53
2022-07-28T03:11:56.400Z,95896.59
2022-07-28T03:14:23.449Z,95897.63
2022-07-28T03:16:55.135Z,95900.09
2022-07-28T03:19:22.458Z,95906.28
2022-07-28T03:21:49.098Z,95902.66
2022-07-28T03:24:17.210Z,95912.19
2022-07-28T03:26:44.292Z,95910.97
2022-07-28T03:29:11.175Z,95914.00
2022-07-28T03:31:37.792Z,95916.59
2022-07-28T03:36:49.745Z,95914.56
2022-07-28T03:39:18.305Z,95918.88
2022-07-28T03:41:44.962Z,95914.88
2022-07-28T03:44:11.959Z,95912.53
2022-07-28T03:46:39.108Z,95918.53
2022-07-28T03:52:18.514Z,95934.22
2022-07-28T03:54:50.083Z,95923.44
2022-07-28T03:57:17.777Z,95926.63
2022-07-28T03:59:44.705Z,95926.94
2022-07-28T04:02:11.246Z,95929.84
2022-07-28T04:04:38.053Z,95927.09
2022-07-28T04:07:05.257Z,95929.25
2022-07-28T04:09:33.820Z,95925.53
2022-07-28T04:12:00.405Z,95931.88
2022-07-28T04:14:47.070Z,95935.84
2022-07-28T04:17:14.123Z,95935.00
2022-07-28T04:19:41.042Z,95939.06
2022-07-28T04:22:09.534Z,95933.94
2022-07-28T04:24:36.627Z,95934.06
2022-07-28T04:27:03.504Z,95935.41
2022-07-28T04:29:30.238Z,95938.59
2022-07-28T04:31:58.231Z,95935.16
2022-07-28T04:34:25.153Z,95937.00
2022-07-28T04:36:52.617Z,95937.22
2022-07-28T04:39:19.212Z,95935.75
2022-07-28T04:41:46.321Z,95941.72
2022-07-28T04:44:13.393Z,95943.19
2022-07-28T04:46:40.747Z,95935.91
2022-07-28T04:51:58.344Z,95950.53
2022-07-28T04:54:26.886Z,95950.38
2022-07-28T04:56:53.588Z,95953.75
2022-07-28T04:59:20.276Z,95953.78
2022-07-28T05:01:48.109Z,95955.34
2022-07-28T05:04:15.085Z,95946.97
2022-07-28T05:06:46.949Z,95951.44
2022-07-28T05:09:13.896Z,95943.44
2022-07-28T05:11:40.965Z,95942.84
2022-07-28T05:14:15.534Z,95942.53
2022-07-28T05:16:44.880Z,95940.47
2022-07-28T05:19:14.600Z,95945.13
2022-07-28T05:21:41.161Z,95940.81
2022-07-28T05:24:08.053Z,95941.22
2022-07-28T05:29:41.810Z,95942.94
2022-07-28T05:32:16.453Z,95943.44
2022-07-28T05:34:44.596Z,95941.66
2022-07-28T05:37:11.622Z,95945.84
2022-07-28T05:39:38.650Z,95949.66
2022-07-28T05:42:07.814Z,95945.13
2022-07-28T05:44:38.290Z,95946.97
2022-07-28T05:47:12.472Z,95950.16
2022-07-28T05:52:33.033Z,95948.44
2022-07-28T05:55:06.889Z,95945.75
2022-07-28T05:57:33.552Z,95944.53
2022-07-28T06:00:00.272Z,95946.66
2022-07-28T06:02:26.918Z,95942.53
2022-07-28T06:04:56.832Z,95935.88
2022-07-28T06:07:23.443Z,95933.16
2022-07-28T06:10:11.940Z,95933.81
2022-07-28T06:12:38.821Z,95936.16
2022-07-28T06:15:06.228Z,95938.28
2022-07-28T06:17:33.077Z,95937.69
2022-07-28T06:19:59.826Z,95937.34
2022-07-28T06:22:26.418Z,95941.09
2022-07-28T06:24:53.011Z,95941.41
2022-07-28T06:27:20.617Z,95935.34
2022-07-28T06:29:50.995Z,95947.19
2022-07-28T06:32:17.782Z,95942.91
2022-07-28T06:34:44.369Z,95948.41
2022-07-28T06:37:13.675Z,95948.56
2022-07-28T06:39:40.625Z,95936.84
2022-07-28T06:42:07.324Z,95942.44
2022-07-28T06:44:57.366Z,95943.00
2022-07-28T06:47:22.536Z,95945.50
2022-07-28T06:49:49.662Z,95948.53
2022-07-28T06:52:16.779Z,95952.69
2022-07-28T06:54:47.735Z,95949.34
2022-07-28T06:57:15.560Z,95947.13
2022-07-28T06:59:45.431Z,95950.25
2022-07-28T07:02:12.242Z,95960.09
2022-07-28T07:04:38.982Z,95954.19
2022-07-28T07:07:15.481Z,95961.00
2022-07-28T07:09:43.933Z,95960.84
2022-07-28T07:12:10.471Z,95960.28
2022-07-28T07:14:37.260Z,95971.41
2022-07-28T07:17:04.036Z,95963.47
2022-07-28T07:19:30.697Z,95960.91
2022-07-28T07:22:00.015Z,95957.22
2022-07-28T07:24:27.485Z,95955.94
2022-07-28T07:26:55.175Z,95956.84
2022-07-28T07:29:21.970Z,95957.72
2022-07-28T07:31:53.154Z,95960.59
2022-07-28T07:34:20.487Z,95955.63
2022-07-28T07:36:47.130Z,95956.25
2022-07-28T07:39:15.465Z,95959.94
2022-07-28T07:41:42.104Z,95957.13
2022-07-28T07:44:08.821Z,95958.41
2022-07-28T07:46:37.419Z,95959.84
2022-07-28T07:49:04.056Z,95960.16
2022-07-28T07:51:30.764Z,95965.22
2022-07-28T07:53:57.233Z,95957.28
2022-07-28T07:56:23.898Z,95966.03
2022-07-28T07:58:56.493Z,95967.53
2022-07-28T08:01:23.744Z,95964.41
2022-07-28T08:03:50.696Z,95956.25
2022-07-28T08:06:17.883Z,95959.19
2022-07-28T08:08:54.468Z,95959.69
2022-07-28T08:11:21.273Z,95950.03
2022-07-28T08:13:47.940Z,95955.53
2022-07-28T08:16:15.266Z,95957.31
2022-07-28T08:21:32.579Z,95947.13
2022-07-28T08:23:59.866Z,95957.94
2022-07-28T08:26:26.633Z,95953.78
2022-07-28T08:28:53.493Z,95949.19
2022-07-28T08:31:20.557Z,95954.69
2022-07-28T08:33:53.696Z,95950.81
2022-07-28T08:36:22.141Z,95954.34
2022-07-28T08:38:49.209Z,95959.81
2022-07-28T08:41:15.830Z,95949.88
2022-07-28T08:43:42.556Z,95954.75
2022-07-28T08:46:09.760Z,95952.44
2022-07-28T08:48:38.298Z,95952.06
2022-07-28T08:51:05.090Z,95955.72
2022-07-28T08:53:31.686Z,95960.41
2022-07-28T08:55:58.708Z,95957.34
2022-07-28T08:58:25.312Z,95955.72
2022-07-28T09:00:51.902Z,95959.50
2022-07-28T09:03:19.035Z,95963.16
2022-07-28T09:05:49.314Z,95956.44
2022-07-28T09:08:16.742Z,95959.16
2022-07-28T09:10:43.353Z,95952.47
2022-07-28T09:13:13.521Z,95958.06
2022-07-28T09:15:40.368Z,95963.00
2022-07-28T09:18:09.277Z,95958.09
2022-07-28T09:20:36.010Z,95950.28
2022-07-28T09:23:04.944Z,95948.63
2022-07-28T09:25:53.598Z,95949.78
2022-07-28T09:28:20.849Z,95950.31
2022-07-28T09:30:54.109Z,95947.06
2022-07-28T09:33:43.014Z,95943.59
2022-07-28T09:36:08.002Z,95939.81
2022-07-28T09:38:34.790Z,95933.28
2022-07-28T09:41:01.333Z,95933.84
2022-07-28T09:43:29.908Z,95942.09
2022-07-28T09:45:58.434Z,95939.59
2022-07-28T09:48:26.171Z,95936.88
2022-07-28T09:50:53.172Z,95936.84
2022-07-28T09:53:19.780Z,95938.47
2022-07-28T09:55:49.455Z,95941.19
2022-07-28T09:58:16.198Z,95942.28
2022-07-28T10:00:43.734Z,95940.09
2022-07-28T10:03:11.977Z,95928.44
2022-07-28T10:05:38.718Z,95938.66
2022-07-28T10:08:05.664Z,95930.78
2022-07-28T10:10:32.467Z,95920.81
2022-07-28T10:12:59.304Z,95920.44
2022-07-28T10:15:31.237Z,95918.59
2022-07-28T10:17:58.348Z,95906.22
2022-07-28T10:20:25.116Z,95908.97
2022-07-28T10:22:51.670Z,95902.63
2022-07-28T10:25:18.597Z,95905.81
2022-07-28T10:27:46.124Z,95899.66
2022-07-28T10:30:12.728Z,95897.13
2022-07-28T10:32:42.674Z,95887.69
2022-07-28T10:35:09.557Z,95892.34
2022-07-28T10:37:36.172Z,95890.47
2022-07-28T10:40:07.782Z,95888.56
2022-07-28T10:42:36.341Z,95894.34
2022-07-28T10:45:03.229Z,95896.41
2022-07-28T10:47:36.324Z,95893.06
2022-07-28T10:50:03.368Z,95900.59
2022-07-28T10:52:46.863Z,95892.97
2022-07-28T10:55:15.165Z,95891.19
2022-07-28T10:57:47.402Z,95886.81
2022-07-28T11:00:41.932Z,95885.31
2022-07-28T11:03:17.782Z,95884.91
2022-07-28T11:05:44.490Z,95888.81
2022-07-28T11:08:11.078Z,95882.13
2022-07-28T11:10:38.350Z,95879.53
2022-07-28T11:13:04.971Z,95883.47
2022-07-28T11:15:32.715Z,95880.25
2022-07-28T11:17:59.533Z,95883.31
2022-07-28T11:20:29.551Z,95873.63
2022-07-28T11:22:57.101Z,95883.88
2022-07-28T11:25:24.898Z,95882.13
2022-07-28T11:27:52.552Z,95873.06
2022-07-28T11:30:21.533Z,95875.25
2022-07-28T11:32:50.470Z,95878.50
2022-07-28T11:35:18.384Z,95878.50
2022-07-28T11:37:45.088Z,95874.91
2022-07-28T11:40:11.703Z,95871.81
2022-07-28T11:42:43.452Z,95866.81
2022-07-28T11:45:15.503Z,95863.16
2022-07-28T11:47:43.270Z,95866.28
2022-07-28T11:50:09.781Z,95870.91
2022-07-28T11:52:37.292Z,95873.59
2022-07-28T11:55:05.218Z,95864.28
2022-07-28T11:57:31.821Z,95870.94
2022-07-28T11:59:58.797Z,95873.97
2022-07-28T12:02:26.377Z,95871.25
2022-07-28T12:04:53.146Z,95866.09
2022-07-28T12:07:19.818Z,95870.75
2022-07-28T12:09:46.409Z,95863.47
2022-07-28T12:12:16.211Z,95859.59
2022-07-28T12:14:42.938Z,95860.47
2022-07-28T12:17:09.669Z,95862.53
2022-07-28T12:19:37.538Z,95861.00
2022-07-28T12:22:04.646Z,95854.03
2022-07-28T12:24:31.254Z,95850.75
2022-07-28T12:26:58.030Z,95842.31
2022-07-28T12:29:24.702Z,95845.50
2022-07-28T12:31:58.681Z,95837.03
2022-07-28T12:34:28.686Z,95836.03
2022-07-28T12:36:55.980Z,95840.38
2022-07-28T12:39:23.517Z,95833.94
2022-07-28T12:41:54.013Z,95833.94
2022-07-28T12:44:20.920Z,95840.00
2022-07-28T12:46:47.753Z,95840.88
2022-07-28T12:49:14.533Z,95846.03
2022-07-28T12:51:41.183Z,95841.00
2022-07-28T12:54:09.012Z,95839.59
2022-07-28T12:56:35.624Z,95845.03
2022-07-28T12:59:05.298Z,95835.97
2022-07-28T13:01:32.494Z,95839.44
2022-07-28T13:03:59.945Z,95839.59
2022-07-28T13:06:26.633Z,95839.50
2022-07-28T13:08:53.371Z,95841.34
2022-07-28T13:14:10.407Z,95842.25
2022-07-28T13:16:38.922Z,95838.81
2022-07-28T13:19:07.162Z,95835.81
2022-07-28T13:21:33.850Z,95837.81
2022-07-28T13:24:00.440Z,95826.94
2022-07-28T13:26:27.420Z,95830.81
2022-07-28T13:28:54.425Z,95835.28
2022-07-28T13:31:21.091Z,95820.31
2022-07-28T13:33:48.133Z,95822.81
2022-07-28T13:36:14.954Z,95822.22
2022-07-28T13:38:41.877Z,95822.38
2022-07-28T13:41:08.829Z,95818.03
2022-07-28T13:43:36.163Z,95816.34
2022-07-28T13:46:06.870Z,95819.50
2022-07-28T13:48:33.694Z,95812.88
2022-07-28T13:51:00.545Z,95808.16
2022-07-28T13:53:27.764Z,95814.03
2022-07-28T13:55:54.610Z,95810.75
2022-07-28T13:58:21.634Z,95811.59
2022-07-28T14:00:49.806Z,95803.69
2022-07-28T14:03:16.602Z,95802.41
2022-07-28T14:05:44.074Z,95804.56
2022-07-28T14:08:10.990Z,95802.69
2022-07-28T14:10:37.580Z,95803.97
2022-07-28T14:13:04.212Z,95807.28
2022-07-28T14:15:31.101Z,95804.41
2022-07-28T14:17:58.126Z,95805.41
2022-07-28T14:20:25.045Z,95793.91
2022-07-28T14:22:51.700Z,95797.94
2022-07-28T14:25:20.997Z,95794.78
2022-07-28T14:27:48.328Z,95790.03
2022-07-28T14:30:14.912Z,95794.78
2022-07-28T14:32:41.534Z,95792.88
2022-07-28T14:35:15.522Z,95791.59
2022-07-28T14:38:15.773Z,95790.59
2022-07-28T14:40:29.122Z,95788.44
2022-07-28T14:42:55.798Z,95778.78
2022-07-28T14:45:25.603Z,95777.59
2022-07-28T14:47:52.569Z,95785.47
2022-07-28T14:50:20.387Z,95772.09
2022-07-28T14:52:49.544Z,95774.53
2022-07-28T14:55:16.176Z,95782.44
2022-07-28T14:57:48.479Z,95783.59
2022-07-28T15:00:20.850Z,95782.13
2022-07-28T15:02:48.291Z,95786.25
2022-07-28T15:05:15.534Z,95786.03
2022-07-28T15:07:42.298Z,95785.31
2022-07-28T15:10:09.461Z,95795.41
2022-07-28T15:12:36.429Z,95786.63
2022-07-28T15:15:02.984Z,95798.41
2022-07-28T15:17:29.666Z,95794.81
2022-07-28T15:19:56.323Z,95802.72
2022-07-28T15:22:26.241Z,95799.84
2022-07-28T15:24:53.314Z,95792.34
2022-07-28T15:27:20.053Z,95804.88
2022-07-28T15:29:46.749Z,95798.13
2022-07-28T15:32:16.999Z,95793.94
2022-07-28T15:34:45.735Z,95796.84
2022-07-28T15:37:12.388Z,95807.06
2022-07-28T15:39:43.268Z,95807.50
2022-07-28T15:42:13.019Z,95811.09
2022-07-28T15:44:40.109Z,95810.25
2022-07-28T15:47:06.744Z,95814.38
2022-07-28T15:49:36.010Z,95811.16
2022-07-28T15:52:10.067Z,95804.06
2022-07-28T15:54:37.515Z,95812.81
2022-07-28T15:57:04.446Z,95820.56
2022-07-28T15:59:50.260Z,95817.00
2022-07-28T16:02:18.054Z,95807.94
2022-07-28T16:04:47.831Z,95802.75
2022-07-28T16:07:22.448Z,95805.31
2022-07-28T16:09:49.282Z,95800.69
2022-07-28T16:12:15.993Z,95803.84
2022-07-28T16:14:42.747Z,95805.31
2022-07-28T16:17:09.331Z,95797.53
2022-07-28T16:19:48.607Z,95802.88
2022-07-28T16:22:16.362Z,95789.19
2022-07-28T16:24:43.282Z,95791.78
2022-07-28T16:27:10.860Z,95793.06
2022-07-28T16:29:38.394Z,95797.41
2022-07-28T16:32:08.835Z,95798.13
2022-07-28T16:34:46.483Z,95790.59
2022-07-28T16:37:19.074Z,95783.97
2022-07-28T16:39:46.551Z,95794.06
2022-07-28T16:42:13.123Z,95796.50
2022-07-28T16:44:41.477Z,95789.16
2022-07-28T16:47:08.412Z,95788.88
2022-07-28T16:49:35.051Z,95793.19
2022-07-28T16:52:01.851Z,95793.50
2022-07-28T16:54:28.739Z,95799.94
2022-07-28T16:56:55.405Z,95801.81
2022-07-28T16:59:22.477Z,95809.75
2022-07-28T17:01:49.437Z,95806.41
2022-07-28T17:04:16.902Z,95811.03
2022-07-28T17:06:47.822Z,95810.59
2022-07-28T17:09:15.425Z,95810.72
2022-07-28T17:11:42.094Z,95809.72
2022-07-28T17:14:11.255Z,95801.25
2022-07-28T17:19:33.217Z,95815.03
2022-07-28T17:22:00.180Z,95817.59
2022-07-28T17:24:26.703Z,95813.47
2022-07-28T17:29:40.140Z,95814.75
2022-07-28T17:32:06.895Z,95821.22
2022-07-28T17:34:33.846Z,95828.13
2022-07-28T17:37:00.863Z,95832.88
2022-07-28T17:39:27.611Z,95833.69
2022-07-28T17:41:56.611Z,95841.94
2022-07-28T17:44:25.623Z,95844.16
2022-07-28T17:46:52.385Z,95848.03
2022-07-28T17:49:21.357Z,95851.91
2022-07-28T17:51:48.000Z,95853.22
2022-07-28T17:54:18.924Z,95863.72
2022-07-28T17:56:50.154Z,95864.44
2022-07-28T17:59:17.349Z,95868.59
2022-07-28T18:01:45.681Z,95867.00
2022-07-28T18:04:12.475Z,95869.44
2022-07-28T18:06:39.242Z,95872.16
2022-07-28T18:09:07.182Z,95882.47
2022-07-28T18:11:35.974Z,95882.72
2022-07-28T18:14:10.376Z,95880.72
2022-07-28T18:16:37.179Z,95881.16
2022-07-28T18:19:03.718Z,95889.16
2022-07-28T18:21:30.918Z,95883.13
2022-07-28T18:23:58.503Z,95894.22
2022-07-28T18:26:25.460Z,95895.88
2022-07-28T18:28:52.090Z,95897.91
2022-07-28T18:31:18.864Z,95907.56
2022-07-28T18:33:45.926Z,95905.41
2022-07-28T18:36:12.580Z,95910.91
2022-07-28T18:38:39.305Z,95914.44
2022-07-28T18:41:05.886Z,95912.25
2022-07-28T18:43:35.463Z,95906.69
2022-07-28T18:46:04.804Z,95916.28
2022-07-28T18:48:31.745Z,95911.53
2022-07-28T18:50:58.744Z,95917.81
2022-07-28T18:53:25.650Z,95918.28
2022-07-28T18:55:52.839Z,95914.28
2022-07-28T18:58:19.700Z,95916.47
2022-07-28T19:00:46.479Z,95929.84
2022-07-28T19:03:13.617Z,95925.66
2022-07-28T19:05:45.541Z,95934.81
2022-07-28T19:08:15.010Z,95938.13
2022-07-28T19:10:44.058Z,95941.56
2022-07-28T19:13:12.954Z,95945.19
2022-07-28T19:15:42.839Z,95958.22
2022-07-28T19:18:11.076Z,95946.16
2022-07-28T19:20:38.466Z,95952.41
2022-07-28T19:23:05.801Z,95952.47
2022-07-28T19:25:34.877Z,95962.31
2022-07-28T19:28:01.794Z,95965.69
2022-07-28T19:30:28.526Z,95958.91
2022-07-28T19:32:55.164Z,95969.34
2022-07-28T19:35:21.706Z,95970.56
2022-07-28T19:37:48.839Z,95981.09
2022-07-28T19:40:15.361Z,95978.31
2022-07-28T19:42:42.024Z,95983.78
2022-07-28T19:45:09.169Z,95986.50
2022-07-28T19:47:36.829Z,95990.34
2022-07-28T19:50:04.441Z,95997.41
2022-07-28T19:52:31.215Z,95998.69
2022-07-28T19:55:04.267Z,95998.69
2022-07-28T19:57:31.795Z,95989.97
2022-07-28T19:59:58.559Z,95997.91
2022-07-28T20:02:25.723Z,96004.25
2022-07-28T20:04:54.131Z,96011.25
2022-07-28T20:07:21.002Z,96014.94
2022-07-28T20:09:47.566Z,96007.75
2022-07-28T20:12:14.540Z,96018.16
2022-07-28T20:14:41.365Z,96012.00
2022-07-28T20:17:08.355Z,96018.19
2022-07-28T20:19:35.293Z,96012.38
2022-07-28T20:22:03.979Z,96012.59
2022-07-28T20:24:30.714Z,96013.84
2022-07-28T20:26:57.550Z,96013.84
2022-07-28T20:29:24.227Z,96014.94
2022-07-28T20:31:51.102Z,96018.03
2022-07-28T20:34:20.100Z,96020.00
2022-07-28T20:36:54.180Z,96018.34
2022-07-28T20:39:43.696Z,96014.22
2022-07-28T20:42:08.112Z,96012.97
2022-07-28T20:44:34.977Z,96013.50
2022-07-28T20:47:04.487Z,96001.91
2022-07-28T20:49:32.061Z,96014.38
2022-07-28T20:51:59.055Z,96012.78
2022-07-28T20:54:25.894Z,96025.81
2022-07-28T20:56:52.676Z,96023.44
2022-07-28T20:59:19.244Z,96017.66
2022-07-28T21:01:47.050Z,96022.72
2022-07-28T21:04:14.038Z,96034.66
2022-07-28T21:06:50.831Z,96027.97
2022-07-28T21:09:19.521Z,96033.75
2022-07-28T21:11:46.409Z,96032.31
2022-07-28T21:14:13.336Z,96031.91
2022-07-28T21:16:40.328Z,96036.63
2022-07-28T21:19:07.074Z,96046.59
2022-07-28T21:21:33.959Z,96038.28
2022-07-28T21:24:00.540Z,96040.47
2022-07-28T21:26:28.949Z,96039.19
2022-07-28T21:28:55.787Z,96036.81
2022-07-28T21:31:22.318Z,96030.84
2022-07-28T21:33:49.811Z,96044.25
2022-07-28T21:36:16.533Z,96047.16
2022-07-28T21:38:45.234Z,96050.25
2022-07-28T21:41:12.647Z,96046.44
2022-07-28T21:43:43.709Z,96039.16
2022-07-28T21:46:10.634Z,96038.81
2022-07-28T21:48:37.348Z,96042.81
2022-07-28T21:51:04.097Z,96049.84
2022-07-28T21:53:43.282Z,96044.75
2022-07-28T21:56:10.472Z,96042.03
2022-07-28T21:58:39.812Z,96050.09
2022-07-28T22:01:06.570Z,96044.16
2022-07-28T22:03:33.229Z,96047.78
2022-07-28T22:05:59.827Z,96036.22
2022-07-28T22:08:26.435Z,96040.16
2022-07-28T22:10:53.001Z,96033.31
2022-07-28T22:13:19.698Z,96035.09
2022-07-28T22:15:46.611Z,96038.38
2022-07-28T22:18:16.623Z,96036.75
2022-07-28T22:20:45.480Z,96032.59
2022-07-28T22:23:28.698Z,96039.44
2022-07-28T22:25:56.646Z,96044.78
2022-07-28T22:28:29.433Z,96042.63
2022-07-28T22:30:56.759Z,96039.56
2022-07-28T22:33:23.831Z,96048.56
2022-07-28T22:35:50.865Z,96050.19
2022-07-28T22:38:20.490Z,96046.06
2022-07-28T22:40:47.250Z,96060.06
2022-07-28T22:43:13.903Z,96043.78
2022-07-28T22:45:49.686Z,96054.31
2022-07-28T22:48:17.777Z,96050.88
2022-07-28T22:50:44.559Z,96056.34
2022-07-28T22:53:11.267Z,96052.88
2022-07-28T22:55:40.322Z,96054.34
2022-07-28T22:58:07.100Z,96054.34
2022-07-28T23:00:36.311Z,96048.19
2022-07-28T23:03:05.082Z,96042.94
2022-07-28T23:05:32.032Z,96044.09
2022-07-28T23:07:59.685Z,96039.88
2022-07-28T23:10:26.472Z,96035.00
2022-07-28T23:12:57.290Z,96038.06
2022-07-28T23:15:40.733Z,96040.97
2022-07-28T23:18:08.038Z,96039.84
2022-07-28T23:20:34.596Z,96040.75
2022-07-28T23:23:02.237Z,96034.06
2022-07-28T23:25:36.300Z,96046.34
2022-07-28T23:28:04.642Z,96055.38
2022-07-28T23:30:31.175Z,96043.06
2022-07-28T23:32:57.730Z,96048.84
2022-07-28T23:35:24.260Z,96054.25
2022-07-28T23:37:51.793Z,96048.47
2022-07-28T23:40:18.876Z,96050.78
2022-07-28T23:42:47.259Z,96050.41
2022-07-28T23:45:14.056Z,96048.38
2022-07-28T23:47:40.645Z,96042.06
2022-07-28T23:50:07.105Z,96043.16
2022-07-28T23:52:33.888Z,96035.78
2022-07-28T23:55:00.437Z,96041.19
2022-07-28T23:57:30.892Z,96031.59
2022-07-28T23:59:59.166Z,96033.41
